Friday, May 6, 2016, 7:03 AM EDT

KSEG, Selinsgrove Penn Valley Airport

Location: Selinsgrove, PA, United States Lat: 40.817
Local Time: 7:03 AM EDT (11:03 GMT) Lon: -76.867
Time Zone: US/Eastern Elev: 449 ft

Show me the last for .
Show Decoded

2016-05-06 06:53 METAR KSEG 061053Z AUTO 34009KT 10SM OVC047 12/08 A2969 RMK AO2 SLP054 T01220078
                 =
2016-05-06 05:53 METAR KSEG 060953Z AUTO 35009G21KT 10SM OVC045 12/08 A2970 RMK AO2 SLP055
                 T01170078 =
2016-05-06 04:53 METAR KSEG 060853Z AUTO 35006KT 10SM OVC042 12/08 A2970 RMK AO2 SLP058 T01220078
                 53002 =
2016-05-06 03:53 METAR KSEG 060753Z AUTO 35006KT 10SM OVC040 12/08 A2970 RMK AO2 SLP057 T01170078
                 =
2016-05-06 02:53 METAR KSEG 060653Z AUTO 35005KT 10SM OVC048 12/08 A2970 RMK AO2 SLP057 T01170078
                 =
2016-05-06 01:53 METAR KSEG 060553Z AUTO 35005KT 10SM SCT039 OVC055 11/08 A2970 RMK AO2 SLP057
                 T01110078 10133 20106 58002 =
2016-05-06 00:53 METAR KSEG 060453Z AUTO 34003KT 10SM BKN048 OVC120 11/08 A2970 RMK AO2 SLP058
                 T01060083 401500094 =
2016-05-05 23:53 METAR KSEG 060353Z AUTO 04003KT 10SM OVC038 12/08 A2971 RMK AO2 SLP061 T01220078
                 =
2016-05-05 22:53 METAR KSEG 060253Z AUTO 35006KT 10SM OVC038 13/07 A2970 RMK AO2 SLP059 T01280072
                 51007 =
2016-05-05 21:53 METAR KSEG 060153Z AUTO 35007KT 10SM OVC047 13/07 A2970 RMK AO2 SLP058 T01280067
                 =
2016-05-05 20:53 METAR KSEG 060053Z AUTO 35010KT 10SM OVC040 13/07 A2969 RMK AO2 SLP055 T01330067
                 =
2016-05-05 19:53 METAR KSEG 052353Z AUTO 01011KT 10SM OVC040 13/07 A2968 RMK AO2 SLP051 T01330067
                 10150 20128 51005 =
2016-05-05 18:53 METAR KSEG 052253Z AUTO 36008KT 10SM OVC041 14/07 A2968 RMK AO2 SLP051 T01390067
                 =
2016-05-05 17:53 METAR KSEG 052153Z AUTO 02011KT 10SM OVC043 14/07 A2968 RMK AO2 SLP049 T01440067
                 =
2016-05-05 16:53 METAR KSEG 052053Z AUTO 03010G18KT 10SM OVC039 14/07 A2967 RMK AO2 SLP046
                 T01440067 56009 =
2016-05-05 15:53 METAR KSEG 051953Z AUTO 01008KT 10SM OVC035 14/07 A2967 RMK AO2 SLP048 T01440072
                 =
2016-05-05 14:53 METAR KSEG 051853Z AUTO 05007KT 10SM OVC032 14/07 A2969 RMK AO2 SLP053 T01390072
                 =
2016-05-05 14:45 METAR KSEG 051845Z AUTO 05007KT 10SM OVC030 13/07 A2969 RMK AO2 T01330072 =
2016-05-05 13:53 METAR KSEG 051753Z AUTO 02011KT 10SM OVC026 13/07 A2970 RMK AO2 SLP056 T01280067
                 10128 20111 58007 =
2016-05-05 12:53 METAR KSEG 051653Z AUTO 05006KT 10SM OVC026 13/07 A2970 RMK AO2 SLP058 T01280072
                 =
2016-05-05 11:53 METAR KSEG 051553Z AUTO 03007KT 10SM OVC025 12/07 A2972 RMK AO2 SLP062 T01220072
                 =
2016-05-05 10:53 METAR KSEG 051453Z AUTO 03007KT 10SM OVC019 12/08 A2972 RMK AO2 SLP063 T01220078
                 50004 =
2016-05-05 09:53 METAR KSEG 051353Z AUTO 04006KT 10SM BKN022 OVC030 12/08 A2973 RMK AO2 SLP066
                 T01170078 $ =
2016-05-05 09:45 METAR KSEG 051345Z AUTO 02006KT 10SM BKN022 OVC030 12/08 A2972 RMK AO2 T01170078
                 $ =
2016-05-05 09:33 METAR KSEG 051333Z AUTO 05006KT 10SM SCT020 OVC030 11/07 A2972 RMK AO2 T01110072
                 $ =
2016-05-05 08:53 METAR KSEG 051253Z AUTO 05008KT 10SM OVC018 11/08 A2971 RMK AO2 SLP062 T01110078
                 $ =
2016-05-05 08:12 METAR KSEG 051212Z AUTO 03004KT 10SM OVC015 11/08 A2971 RMK AO2 T01110078 $ =
2016-05-05 07:53 METAR KSEG 051153Z AUTO 05006KT 10SM BKN011 BKN036 12/09 A2970 RMK AO2 RAE1054
                 SLP059 P0000 60000 70001 T01170089 10117 20094 56003 $ =
2016-05-05 07:41 METAR KSEG 051141Z AUTO 02004KT 10SM SCT009 BKN036 11/08 A2970 RMK AO2 RAE1054
                 P0000 T01060083 $ =
2016-05-05 07:32 METAR KSEG 051132Z AUTO 02004KT 10SM FEW011 FEW024 BKN035 11/08 A2970 RMK AO2
                 RAE1054 P0000 T01060083 $ =
2016-05-05 07:16 METAR KSEG 051116Z AUTO 02006KT 10SM FEW006 BKN024 OVC035 10/08 A2970 RMK AO2
                 RAE1054 P0000 T01000083 $ =

Support USWX by starting your Amazon purchase here.